CheckWX is a tool to help pilots better visualize weather data.  It is not intended as a substitute for an official pre-flight weather briefing.

20:12:53 UTC

KIOB METAR
Mount Sterling-Montgomery County Airport
Mount Sterling, Kentucky, USA
Current

18 mins ago

KIOB 231955Z AUTO 26012G19KT 10SM CLR 26/13 A2999 RMK AO2
Observed
Apr-23 @ 19:55 UTC
Wind
  • 260° at 12 KTS
  • Gusting to 19 KTS
Visibility
10 SM
Flight Rules
VFR
Cloud Levels
  • Clear skies
Temperature
26°C / 79°F
Dewpoint
13°C / 55°F
Humidity
45%
Altimeter
29.99" Hg
Pressure
1015.62 hPa
Previous

38 mins ago

KIOB 231935Z AUTO 27009G21KT 10SM CLR 26/14 A3000 RMK AO2
Observed
Apr-23 @ 19:35 UTC
Wind
  • 270° at 9 KTS
  • Gusting to 21 KTS
Visibility
10 SM
Flight Rules
VFR
Cloud Levels
  • Clear skies
Temperature
26°C / 79°F
Dewpoint
14°C / 57°F
Humidity
48%
Altimeter
30" Hg
Pressure
1015.92 hPa
Previous

58 mins ago

KIOB 231915Z AUTO 25011G20KT 10SM CLR 26/15 A3000 RMK AO2
Observed
Apr-23 @ 19:15 UTC
Wind
  • 250° at 11 KTS
  • Gusting to 20 KTS
Visibility
10 SM
Flight Rules
VFR
Cloud Levels
  • Clear skies
Temperature
26°C / 79°F
Dewpoint
15°C / 59°F
Humidity
51%
Altimeter
30" Hg
Pressure
1015.92 hPa